createdAt,value
2022-11-14T00:00:43.094Z,98.07
2022-11-14T00:03:28.344Z,98.16
2022-11-14T00:06:13.860Z,97.87
2022-11-14T00:08:59.090Z,99.03
2022-11-14T00:11:44.086Z,99.15
2022-11-14T00:14:29.177Z,98.28
2022-11-14T00:17:14.780Z,98.67
2022-11-14T00:19:59.497Z,98.78
2022-11-14T00:22:44.930Z,99.25
2022-11-14T00:25:30.234Z,99.25
2022-11-14T00:28:15.700Z,99.21
2022-11-14T00:31:00.454Z,98.69
2022-11-14T00:33:45.961Z,99.42
2022-11-14T00:36:31.236Z,98.97
2022-11-14T00:39:16.670Z,98.37
2022-11-14T00:42:03.271Z,98.61
2022-11-14T00:44:49.141Z,99.42
2022-11-14T00:47:34.147Z,98.89
2022-11-14T00:50:19.432Z,99.20
2022-11-14T00:53:04.706Z,98.53
2022-11-14T00:55:49.913Z,98.17
2022-11-14T00:58:34.849Z,97.83
2022-11-14T01:01:20.053Z,98.55
2022-11-14T01:04:05.414Z,98.58
2022-11-14T01:06:50.598Z,98.07
2022-11-14T01:09:35.867Z,97.98
2022-11-14T01:12:20.934Z,98.52
2022-11-14T01:15:06.846Z,97.38
2022-11-14T01:17:51.970Z,97.35
2022-11-14T01:20:42.356Z,97.22
2022-11-14T01:23:27.696Z,97.17
2022-11-14T01:26:14.384Z,96.61
2022-11-14T01:28:59.484Z,96.26
2022-11-14T01:31:44.896Z,96.79
2022-11-14T01:34:30.149Z,95.92
2022-11-14T01:37:15.431Z,96.59
2022-11-14T01:40:00.579Z,96.85
2022-11-14T01:43:11.487Z,97.04
2022-11-14T01:46:01.941Z,96.76
2022-11-14T01:49:03.412Z,96.24
2022-11-14T01:51:55.819Z,96.05
2022-11-14T01:54:48.315Z,96.53
2022-11-14T01:57:38.435Z,96.63
2022-11-14T02:00:23.381Z,95.91
2022-11-14T02:03:08.216Z,96.37
2022-11-14T02:05:54.361Z,95.81
2022-11-14T02:08:40.677Z,96.42
2022-11-14T02:11:28.701Z,96.56
2022-11-14T02:14:14.186Z,96.84
2022-11-14T02:17:22.575Z,96.76
2022-11-14T02:20:10.532Z,97.19
2022-11-14T02:22:55.797Z,96.82
2022-11-14T02:25:41.234Z,97.02
2022-11-14T02:28:27.506Z,96.68
2022-11-14T02:31:14.156Z,96.95
2022-11-14T02:33:59.084Z,97.66
2022-11-14T02:36:44.193Z,97.46
2022-11-14T02:39:29.393Z,97.75
2022-11-14T02:42:14.624Z,98.18
2022-11-14T02:45:00.128Z,97.82
2022-11-14T02:47:46.856Z,97.59
2022-11-14T02:50:32.031Z,98.10
2022-11-14T02:53:17.270Z,97.80
2022-11-14T02:56:02.379Z,97.24
2022-11-14T02:58:47.669Z,98.24
2022-11-14T03:01:33.047Z,98.41
2022-11-14T03:04:18.047Z,98.27
2022-11-14T03:07:03.330Z,98.08
2022-11-14T03:09:49.398Z,97.76
2022-11-14T03:12:34.188Z,97.54
2022-11-14T03:15:19.481Z,97.97
2022-11-14T03:18:04.756Z,97.21
2022-11-14T03:20:49.700Z,97.14
2022-11-14T03:23:34.608Z,96.78
2022-11-14T03:26:19.605Z,96.75
2022-11-14T03:29:04.776Z,97.12
2022-11-14T03:31:50.079Z,97.54
2022-11-14T03:34:35.245Z,96.95
2022-11-14T03:37:20.052Z,96.69
2022-11-14T03:40:06.101Z,96.21
2022-11-14T03:42:51.129Z,96.22
2022-11-14T03:45:37.733Z,96.51
2022-11-14T03:48:22.438Z,96.45
2022-11-14T03:51:07.899Z,96.98
2022-11-14T03:53:53.564Z,96.07
2022-11-14T03:56:38.551Z,95.20
2022-11-14T03:59:23.623Z,94.83
2022-11-14T04:02:09.078Z,94.83
2022-11-14T04:04:54.097Z,95.40
2022-11-14T04:07:39.574Z,96.32
2022-11-14T04:10:24.676Z,95.67
2022-11-14T04:13:09.714Z,95.36
2022-11-14T04:15:59.043Z,95.92
2022-11-14T04:18:44.313Z,96.25
2022-11-14T04:21:29.225Z,97.04
2022-11-14T04:24:14.411Z,97.05
2022-11-14T04:26:59.659Z,96.58
2022-11-14T04:29:44.620Z,96.10
2022-11-14T04:32:29.649Z,96.18
2022-11-14T04:35:14.528Z,96.20
2022-11-14T04:37:59.563Z,97.15
2022-11-14T04:40:53.896Z,96.08
2022-11-14T04:43:38.924Z,96.22
2022-11-14T04:46:24.188Z,96.93
2022-11-14T04:49:09.358Z,97.83
2022-11-14T04:51:54.403Z,98.09
2022-11-14T04:54:39.748Z,97.02
2022-11-14T04:57:25.088Z,96.95
2022-11-14T05:00:10.793Z,97.26
2022-11-14T05:02:58.684Z,97.08
2022-11-14T05:05:44.178Z,96.74
2022-11-14T05:08:29.799Z,97.17
2022-11-14T05:11:16.404Z,96.63
2022-11-14T05:14:02.831Z,96.88
2022-11-14T05:16:47.848Z,97.28
2022-11-14T05:19:33.155Z,97.20
2022-11-14T05:22:18.291Z,97.26
2022-11-14T05:25:03.642Z,96.68
2022-11-14T05:27:48.991Z,97.31
2022-11-14T05:30:34.165Z,97.67
2022-11-14T05:33:19.025Z,97.15
2022-11-14T05:36:04.759Z,97.65
2022-11-14T05:38:49.901Z,97.70
2022-11-14T05:41:34.765Z,97.87
2022-11-14T05:44:20.026Z,97.64
2022-11-14T05:47:05.226Z,97.67
2022-11-14T05:49:50.098Z,98.53
2022-11-14T05:52:35.164Z,98.28
2022-11-14T05:55:24.573Z,98.32
2022-11-14T05:58:10.226Z,99.24
2022-11-14T06:01:06.837Z,98.60
2022-11-14T06:03:52.104Z,98.82
2022-11-14T06:06:37.134Z,99.22
2022-11-14T06:09:22.579Z,99.45
2022-11-14T06:12:08.247Z,99.19
2022-11-14T06:14:53.506Z,99.42
2022-11-14T06:17:38.704Z,99.02
2022-11-14T06:20:23.831Z,99.44
2022-11-14T06:23:09.162Z,99.25
2022-11-14T06:26:02.230Z,98.95
2022-11-14T06:28:49.569Z,98.03
2022-11-14T06:31:34.542Z,98.25
2022-11-14T06:34:19.791Z,98.25
2022-11-14T06:37:05.766Z,98.23
2022-11-14T06:39:51.180Z,98.54
2022-11-14T06:42:36.452Z,98.49
2022-11-14T06:45:21.710Z,97.97
2022-11-14T06:48:06.968Z,97.63
2022-11-14T06:50:56.244Z,98.00
2022-11-14T06:53:41.975Z,97.91
2022-11-14T06:56:27.317Z,97.95
2022-11-14T06:59:12.620Z,98.12
2022-11-14T07:01:57.596Z,98.70
2022-11-14T07:04:42.996Z,98.15
2022-11-14T07:07:28.963Z,98.34
2022-11-14T07:10:14.500Z,98.83
2022-11-14T07:12:59.397Z,99.12
2022-11-14T07:15:54.246Z,99.67
2022-11-14T07:18:39.501Z,99.31
2022-11-14T07:21:25.492Z,98.85
2022-11-14T07:24:10.414Z,98.40
2022-11-14T07:26:55.551Z,98.11
2022-11-14T07:29:40.360Z,98.80
2022-11-14T07:32:25.512Z,98.57
2022-11-14T07:35:10.950Z,98.75
2022-11-14T07:38:02.291Z,98.76
2022-11-14T07:40:59.669Z,99.39
2022-11-14T07:43:47.555Z,99.77
2022-11-14T07:46:32.815Z,99.96
2022-11-14T07:49:17.833Z,100.00
2022-11-14T07:52:02.959Z,100.00
2022-11-14T07:54:48.432Z,99.96
2022-11-14T07:57:37.042Z,99.25
2022-11-14T08:00:25.791Z,100.00
2022-11-14T08:03:11.076Z,98.49
2022-11-14T08:06:09.543Z,98.53
2022-11-14T08:08:54.701Z,98.25
2022-11-14T08:11:48.652Z,99.00
2022-11-14T08:14:34.859Z,99.42
2022-11-14T08:17:21.380Z,98.48
2022-11-14T08:20:08.145Z,98.49
2022-11-14T08:22:54.450Z,99.27
2022-11-14T08:25:39.839Z,98.79
2022-11-14T08:28:24.677Z,98.59
2022-11-14T08:31:10.802Z,98.84
2022-11-14T08:33:55.705Z,98.17
2022-11-14T08:36:40.937Z,98.13
2022-11-14T08:39:26.031Z,97.89
2022-11-14T08:42:11.227Z,97.97
2022-11-14T08:44:56.331Z,97.36
2022-11-14T08:47:41.307Z,97.18
2022-11-14T08:50:26.364Z,97.38
2022-11-14T08:53:11.422Z,97.60
2022-11-14T08:55:56.790Z,97.50
2022-11-14T08:58:42.000Z,96.07
2022-11-14T09:01:26.962Z,95.54
2022-11-14T09:04:12.169Z,96.10
2022-11-14T09:06:58.867Z,95.08
2022-11-14T09:09:44.597Z,95.54
2022-11-14T09:12:29.707Z,95.63
2022-11-14T09:15:15.198Z,94.89
2022-11-14T09:18:00.138Z,94.88
2022-11-14T09:20:45.089Z,94.89
2022-11-14T09:23:30.670Z,95.13
2022-11-14T09:26:16.302Z,94.66
2022-11-14T09:29:02.113Z,94.67
2022-11-14T09:31:47.252Z,94.67
2022-11-14T09:34:32.369Z,95.64
2022-11-14T09:37:17.507Z,94.85
2022-11-14T09:40:03.704Z,95.02
2022-11-14T09:43:25.329Z,94.70
2022-11-14T09:46:37.780Z,93.97
2022-11-14T09:49:35.230Z,94.33
2022-11-14T09:52:33.645Z,93.84
2022-11-14T09:55:21.254Z,93.13
2022-11-14T09:58:15.672Z,93.33
2022-11-14T10:01:09.750Z,92.66
2022-11-14T10:04:28.425Z,92.43
2022-11-14T10:07:45.403Z,92.25
2022-11-14T10:10:45.809Z,90.18
2022-11-14T10:13:59.710Z,90.50
2022-11-14T10:16:58.166Z,89.47
2022-11-14T10:20:17.684Z,88.73
2022-11-14T10:23:18.216Z,89.11
2022-11-14T10:26:23.374Z,88.84
2022-11-14T10:29:27.133Z,88.19
2022-11-14T10:32:36.915Z,87.54
2022-11-14T10:35:46.861Z,87.30
2022-11-14T10:38:46.417Z,87.45
2022-11-14T10:41:55.670Z,87.68
2022-11-14T10:44:50.987Z,86.99
2022-11-14T10:47:41.060Z,86.82
2022-11-14T10:50:48.149Z,86.20
2022-11-14T10:53:35.803Z,86.43
2022-11-14T10:56:21.462Z,86.91
2022-11-14T10:59:08.854Z,87.22
2022-11-14T11:01:56.336Z,86.77
2022-11-14T11:04:43.315Z,87.58
2022-11-14T11:07:54.734Z,86.24
2022-11-14T11:11:03.935Z,85.88
2022-11-14T11:13:55.787Z,85.91
2022-11-14T11:16:40.961Z,86.06
2022-11-14T11:19:27.228Z,86.03
2022-11-14T11:22:36.217Z,86.24
2022-11-14T11:25:30.382Z,86.29
2022-11-14T11:28:20.756Z,86.41
2022-11-14T11:31:11.153Z,85.73
2022-11-14T11:34:02.663Z,85.00
2022-11-14T11:36:55.822Z,83.63
2022-11-14T11:39:48.056Z,83.11
2022-11-14T11:43:37.248Z,83.35
2022-11-14T11:46:42.761Z,81.62
2022-11-14T11:49:30.475Z,82.05
2022-11-14T11:52:34.161Z,82.93
2022-11-14T11:55:25.477Z,82.90
2022-11-14T11:58:41.115Z,82.82
2022-11-14T12:01:26.452Z,82.30
2022-11-14T12:04:11.393Z,81.49
2022-11-14T12:07:12.507Z,81.38
2022-11-14T12:10:10.859Z,81.74
2022-11-14T12:13:33.619Z,82.30
2022-11-14T12:16:58.240Z,81.57
2022-11-14T12:20:29.910Z,81.40
2022-11-14T12:23:58.404Z,81.16
2022-11-14T12:26:52.082Z,80.34
2022-11-14T12:29:51.933Z,80.84
2022-11-14T12:32:42.367Z,80.57
2022-11-14T12:35:35.838Z,80.27
2022-11-14T12:38:22.617Z,79.42
2022-11-14T12:41:08.685Z,79.51
2022-11-14T12:43:55.985Z,79.79
2022-11-14T12:47:13.609Z,79.74
2022-11-14T12:50:00.657Z,79.89
2022-11-14T12:52:48.907Z,80.07
2022-11-14T12:55:43.873Z,79.35
2022-11-14T12:58:36.210Z,79.23
2022-11-14T13:01:30.480Z,79.49
2022-11-14T13:04:32.549Z,78.41
2022-11-14T13:07:34.500Z,79.14
2022-11-14T13:10:31.628Z,78.55
2022-11-14T13:13:36.485Z,77.29
2022-11-14T13:16:48.423Z,78.25
2022-11-14T13:19:52.011Z,77.72
2022-11-14T13:22:45.457Z,77.90
2022-11-14T13:25:30.997Z,78.10
2022-11-14T13:28:37.891Z,77.37
2022-11-14T13:31:45.879Z,77.65
2022-11-14T13:34:38.504Z,77.14
2022-11-14T13:38:00.741Z,76.72
2022-11-14T13:40:51.705Z,76.75
2022-11-14T13:44:01.415Z,77.84
2022-11-14T13:47:08.261Z,77.38
2022-11-14T13:49:59.279Z,76.80
2022-11-14T13:52:48.862Z,77.21
2022-11-14T13:55:58.841Z,77.00
2022-11-14T13:58:56.305Z,77.36
2022-11-14T14:01:54.593Z,77.42
2022-11-14T14:05:00.990Z,77.46
2022-11-14T14:08:00.809Z,78.31
2022-11-14T14:11:00.718Z,78.87
2022-11-14T14:13:57.667Z,78.67
2022-11-14T14:16:58.710Z,79.67
2022-11-14T14:20:00.084Z,79.73
2022-11-14T14:23:16.862Z,79.33
2022-11-14T14:26:34.639Z,80.03
2022-11-14T14:29:45.956Z,79.36
2022-11-14T14:32:30.950Z,79.99
2022-11-14T14:35:39.077Z,79.91
2022-11-14T14:38:28.291Z,80.37
2022-11-14T14:41:18.043Z,81.07
2022-11-14T14:44:03.029Z,81.39
2022-11-14T14:46:48.239Z,81.48
2022-11-14T14:49:37.677Z,81.54
2022-11-14T14:52:30.728Z,81.46
2022-11-14T14:55:30.420Z,81.32
2022-11-14T14:58:21.992Z,82.19
2022-11-14T15:01:15.886Z,82.23
2022-11-14T15:04:06.693Z,83.17
2022-11-14T15:06:53.470Z,83.74
2022-11-14T15:09:38.776Z,83.45
2022-11-14T15:12:26.065Z,83.17
2022-11-14T15:15:16.682Z,83.13
2022-11-14T15:18:07.398Z,84.01
2022-11-14T15:21:14.066Z,84.10
2022-11-14T15:24:18.601Z,84.32
2022-11-14T15:27:10.136Z,84.48
2022-11-14T15:30:00.689Z,84.69
2022-11-14T15:32:57.321Z,84.94
2022-11-14T15:35:42.738Z,85.90
2022-11-14T15:38:44.669Z,85.68
2022-11-14T15:41:33.855Z,86.41
2022-11-14T15:44:34.619Z,86.80
2022-11-14T15:47:29.013Z,87.51
2022-11-14T15:50:13.770Z,87.47
2022-11-14T15:53:01.969Z,88.15
2022-11-14T15:55:47.325Z,88.20
2022-11-14T15:58:32.979Z,87.89
2022-11-14T16:01:23.759Z,88.10
2022-11-14T16:04:14.348Z,88.58
2022-11-14T16:06:59.242Z,88.49
2022-11-14T16:09:45.148Z,89.01
2022-11-14T16:12:30.261Z,89.21
2022-11-14T16:15:16.561Z,89.64
2022-11-14T16:18:04.594Z,89.79
2022-11-14T16:20:51.376Z,89.73
2022-11-14T16:23:36.609Z,90.00
2022-11-14T16:26:21.863Z,91.03
2022-11-14T16:29:08.884Z,91.15
2022-11-14T16:31:55.151Z,91.37
2022-11-14T16:34:40.298Z,91.91
2022-11-14T16:37:25.599Z,92.43
2022-11-14T16:40:21.436Z,92.70
2022-11-14T16:43:06.575Z,93.28
2022-11-14T16:45:51.426Z,93.41
2022-11-14T16:48:36.411Z,93.43
2022-11-14T16:51:47.047Z,93.27
2022-11-14T16:54:26.449Z,93.38
2022-11-14T16:57:12.023Z,94.49
2022-11-14T16:59:58.084Z,94.28
2022-11-14T17:02:44.020Z,94.25
2022-11-14T17:05:28.977Z,94.70
2022-11-14T17:08:15.728Z,94.61
2022-11-14T17:11:00.925Z,94.84
2022-11-14T17:13:46.641Z,95.47
2022-11-14T17:16:31.833Z,95.49
2022-11-14T17:19:16.778Z,95.36
2022-11-14T17:22:01.826Z,95.50
2022-11-14T17:24:47.121Z,95.59
2022-11-14T17:27:32.170Z,95.51
2022-11-14T17:30:18.360Z,95.85
2022-11-14T17:33:03.183Z,95.73
2022-11-14T17:35:48.513Z,95.66
2022-11-14T17:38:35.217Z,95.57
2022-11-14T17:41:20.656Z,96.22
2022-11-14T17:44:05.498Z,96.04
2022-11-14T17:46:50.588Z,96.83
2022-11-14T17:49:35.635Z,97.06
2022-11-14T17:52:21.440Z,97.25
2022-11-14T17:55:07.326Z,97.94
2022-11-14T17:57:52.382Z,97.71
2022-11-14T18:00:37.514Z,97.73
2022-11-14T18:03:22.647Z,97.80
2022-11-14T18:06:09.890Z,98.46
2022-11-14T18:08:54.833Z,97.88
2022-11-14T18:11:39.844Z,98.78
2022-11-14T18:14:25.058Z,98.96
2022-11-14T18:17:13.142Z,98.29
2022-11-14T18:20:01.512Z,97.94
2022-11-14T18:22:46.541Z,98.51
2022-11-14T18:25:31.708Z,99.27
2022-11-14T18:28:17.061Z,98.98
2022-11-14T18:31:04.489Z,98.49
2022-11-14T18:33:50.348Z,98.56
2022-11-14T18:36:35.286Z,98.58
2022-11-14T18:39:20.586Z,99.48
2022-11-14T18:42:05.903Z,99.93
2022-11-14T18:44:51.192Z,100.00
2022-11-14T18:47:36.589Z,99.45
2022-11-14T18:50:21.806Z,99.05
2022-11-14T18:53:07.137Z,99.01
2022-11-14T18:55:53.200Z,99.46
2022-11-14T18:58:41.932Z,99.78
2022-11-14T19:01:30.050Z,100.00
2022-11-14T19:04:17.334Z,99.42
2022-11-14T19:07:02.633Z,98.88
2022-11-14T19:09:48.341Z,99.50
2022-11-14T19:12:33.681Z,98.99
2022-11-14T19:15:18.686Z,98.88
2022-11-14T19:18:03.888Z,97.92
2022-11-14T19:20:57.233Z,98.77
2022-11-14T19:23:42.126Z,98.51
2022-11-14T19:26:28.160Z,98.60
2022-11-14T19:29:13.781Z,98.66
2022-11-14T19:31:59.126Z,97.83
2022-11-14T19:34:45.331Z,98.27
2022-11-14T19:37:30.384Z,98.35
2022-11-14T19:40:15.444Z,97.97
2022-11-14T19:43:03.937Z,98.00
2022-11-14T19:45:48.947Z,98.33
2022-11-14T19:48:35.385Z,98.39
2022-11-14T19:51:22.289Z,97.56
2022-11-14T19:54:09.948Z,97.71
2022-11-14T19:56:55.348Z,97.92
2022-11-14T19:59:40.298Z,97.87
2022-11-14T20:02:25.803Z,97.79
2022-11-14T20:05:11.539Z,97.45
2022-11-14T20:07:56.608Z,96.80
2022-11-14T20:10:47.585Z,96.35
2022-11-14T20:13:35.475Z,96.50
2022-11-14T20:16:23.372Z,95.77
2022-11-14T20:19:08.750Z,95.49
2022-11-14T20:21:53.881Z,94.85
2022-11-14T20:24:39.085Z,95.14
2022-11-14T20:27:24.146Z,94.92
2022-11-14T20:30:09.761Z,94.88
2022-11-14T20:32:54.814Z,94.74
2022-11-14T20:35:40.084Z,95.14
2022-11-14T20:38:25.181Z,95.43
2022-11-14T20:41:12.305Z,94.93
2022-11-14T20:43:57.560Z,94.45
2022-11-14T20:46:42.907Z,94.86
2022-11-14T20:49:28.117Z,94.66
2022-11-14T20:52:16.344Z,94.41
2022-11-14T20:55:05.172Z,94.35
2022-11-14T20:57:54.040Z,94.11
2022-11-14T21:00:39.189Z,93.02
2022-11-14T21:03:24.009Z,93.13
2022-11-14T21:06:11.604Z,93.25
2022-11-14T21:08:56.356Z,93.15
2022-11-14T21:11:41.402Z,92.82
2022-11-14T21:14:26.916Z,91.84
2022-11-14T21:17:11.634Z,90.94
2022-11-14T21:19:56.542Z,90.64
2022-11-14T21:22:41.561Z,90.71
2022-11-14T21:25:26.922Z,91.03
2022-11-14T21:28:11.908Z,91.31
2022-11-14T21:30:58.571Z,91.59
2022-11-14T21:33:44.623Z,91.78
2022-11-14T21:36:44.536Z,90.51
2022-11-14T21:39:31.012Z,91.43
2022-11-14T21:42:18.602Z,91.21
2022-11-14T21:45:05.406Z,91.84
2022-11-14T21:47:50.753Z,91.39
2022-11-14T21:50:35.659Z,90.66
2022-11-14T21:53:20.848Z,90.40
2022-11-14T21:56:19.660Z,90.73
2022-11-14T21:59:16.068Z,90.40
2022-11-14T22:02:20.420Z,90.01
2022-11-14T22:05:06.387Z,90.61
2022-11-14T22:07:51.475Z,90.39
2022-11-14T22:10:36.643Z,91.15
2022-11-14T22:13:21.860Z,91.46
2022-11-14T22:16:08.765Z,90.86
2022-11-14T22:18:58.052Z,91.60
2022-11-14T22:21:46.844Z,91.87
2022-11-14T22:24:31.986Z,92.37
2022-11-14T22:27:17.181Z,91.86
2022-11-14T22:30:02.395Z,92.33
2022-11-14T22:32:47.342Z,92.07
2022-11-14T22:35:35.233Z,92.57
2022-11-14T22:38:20.709Z,92.63
2022-11-14T22:41:09.624Z,92.70
2022-11-14T22:43:55.798Z,92.13
2022-11-14T22:46:40.990Z,92.35
2022-11-14T22:49:25.851Z,92.62
2022-11-14T22:52:11.121Z,92.71
2022-11-14T22:54:56.128Z,92.77
2022-11-14T22:57:41.389Z,92.81
2022-11-14T23:00:26.557Z,92.88
2022-11-14T23:04:02.474Z,92.86
2022-11-14T23:06:52.833Z,92.64
2022-11-14T23:09:37.996Z,92.52
2022-11-14T23:12:23.360Z,93.26
2022-11-14T23:15:09.704Z,93.31
2022-11-14T23:17:55.283Z,93.72
2022-11-14T23:20:46.889Z,93.55
2022-11-14T23:23:32.975Z,93.12
2022-11-14T23:26:26.609Z,93.80
2022-11-14T23:29:14.185Z,93.80
2022-11-14T23:31:59.622Z,93.60
2022-11-14T23:34:44.763Z,93.89
2022-11-14T23:37:29.703Z,94.33
2022-11-14T23:40:15.175Z,94.49
2022-11-14T23:43:00.585Z,95.07
2022-11-14T23:45:48.220Z,95.23
2022-11-14T23:48:33.409Z,95.01
2022-11-14T23:51:18.390Z,95.58
2022-11-14T23:54:03.474Z,95.46
2022-11-14T23:56:48.445Z,95.75
2022-11-14T23:59:33.636Z,95.45
